Time;durP1;ratioP1;P1;durP2;ratioP2;P2;SDS_P1;SDS_P2;PMS_P1;PMS_P2;Temp;Humidity;BMP_temperature;BMP_pressure;BME280_temperature;BME280_humidity;BME280_pressure;Samples;Min_cycle;Max_cycle;Signal;HPM_P1;HPM_P2
2023/04/23 14:09:46;;;;;;;;;0.00;0.00;;;;;;;;6209148;22;49761;-73
2023/04/23 14:12:11;;;;;;;;;0.00;0.00;;;;;;;;6202239;22;50061;-74
2023/04/23 14:14:37;;;;;;;;;0.00;0.00;;;;;;;;6205135;22;50295;-75
2023/04/23 14:17:02;;;;;;;;;0.00;0.00;;;;;;;;6203771;22;50907;-74
2023/04/23 14:19:29;;;;;;;;;0.00;0.00;;;;;;;;6204589;22;49689;-73
2023/04/23 14:21:54;;;;;;;;;0.00;0.00;;;;;;;;6204490;22;49782;-73
2023/04/23 14:24:26;;;;;;;;;0.00;0.00;;;;;;;;6202814;22;49619;-72
2023/04/23 14:26:51;;;;;;;;;0.00;0.00;;;;;;;;6202549;22;50745;-73
2023/04/23 14:29:16;;;;;;;;;0.00;0.00;;;;;;;;6204189;22;49681;-72
2023/04/23 14:31:41;;;;;;;;;0.00;0.00;;;;;;;;6204814;22;49657;-71
2023/04/23 14:34:07;;;;;;;;;0.00;0.00;;;;;;;;6204584;22;49968;-72
2023/04/23 14:36:32;;;;;;;;;0.00;0.00;;;;;;;;6204346;22;50655;-74
2023/04/23 14:39:03;;;;;;;;;0.00;0.00;;;;;;;;6203520;22;49632;-73
2023/04/23 14:41:28;;;;;;;;;0.00;0.00;;;;;;;;6202895;22;49681;-73
2023/04/23 14:43:53;;;;;;;;;0.00;0.00;;;;;;;;6205447;22;49950;-74
2023/04/23 14:46:19;;;;;;;;;0.00;0.00;;;;;;;;6204617;22;50523;-71
2023/04/23 14:48:44;;;;;;;;;0.00;0.00;;;;;;;;6204246;22;50084;-73
2023/04/23 14:51:10;;;;;;;;;0.00;0.00;;;;;;;;6204235;22;49924;-72
2023/04/23 14:53:35;;;;;;;;;0.00;0.00;;;;;;;;6202679;22;49865;-71
2023/04/23 14:56:00;;;;;;;;;0.00;0.00;;;;;;;;6203045;22;51233;-73
2023/04/23 14:58:26;;;;;;;;;0.00;0.00;;;;;;;;6202578;22;50069;-72
2023/04/23 15:00:51;;;;;;;;;0.00;0.00;;;;;;;;6203121;22;49834;-72
2023/04/23 15:03:16;;;;;;;;;0.00;0.00;;;;;;;;6204167;22;49763;-73
2023/04/23 15:05:41;;;;;;;;;0.00;0.00;;;;;;;;6202474;22;50703;-73
2023/04/23 15:08:07;;;;;;;;;0.00;0.00;;;;;;;;6201781;22;50105;-73
2023/04/23 15:10:32;;;;;;;;;0.00;0.00;;;;;;;;6204324;22;49919;-73
2023/04/23 15:13:02;;;;;;;;;0.00;0.00;;;;;;;;6204048;22;50149;-74
2023/04/23 15:15:41;;;;;;;;;0.00;0.00;;;;;;;;6203112;22;50437;-73
2023/04/23 15:18:06;;;;;;;;;0.00;0.00;;;;;;;;6202363;22;49665;-72
2023/04/23 15:20:31;;;;;;;;;0.00;0.00;;;;;;;;6202417;22;49743;-71
2023/04/23 15:22:56;;;;;;;;;0.00;0.00;;;;;;;;6202032;22;49958;-72
2023/04/23 15:25:23;;;;;;;;;0.00;0.00;;;;;;;;6202066;22;50091;-74
2023/04/23 15:27:55;;;;;;;;;0.00;0.00;;;;;;;;6201158;22;50268;-73
2023/04/23 15:30:20;;;;;;;;;0.00;0.00;;;;;;;;6199985;22;49997;-73
2023/04/23 15:32:46;;;;;;;;;0.00;0.00;;;;;;;;6202299;22;49686;-72
2023/04/23 15:35:11;;;;;;;;;0.00;0.00;;;;;;;;6202170;22;50026;-73
2023/04/23 15:37:36;;;;;;;;;0.00;0.00;;;;;;;;6201642;22;49915;-72
2023/04/23 15:40:01;;;;;;;;;0.00;0.00;;;;;;;;6197073;22;50192;-73
2023/04/23 15:42:26;;;;;;;;;0.00;0.00;;;;;;;;6196103;22;49948;-73
2023/04/23 15:44:54;;;;;;;;;0.00;0.00;;;;;;;;6202795;22;50498;-72
2023/04/23 15:47:20;;;;;;;;;0.00;0.00;;;;;;;;6202809;22;49951;-73
2023/04/23 15:49:46;;;;;;;;;0.00;0.00;;;;;;;;6202179;22;49987;-72
2023/04/23 15:52:11;;;;;;;;;0.00;0.00;;;;;;;;6203242;22;49811;-72
2023/04/23 15:54:36;;;;;;;;;0.00;0.00;;;;;;;;6202368;22;49705;-74
2023/04/23 15:57:02;;;;;;;;;0.00;0.00;;;;;;;;6200876;22;50059;-73
2023/04/23 15:59:27;;;;;;;;;0.00;0.00;;;;;;;;6202150;22;49953;-73
2023/04/23 16:01:53;;;;;;;;;0.00;0.00;;;;;;;;6203148;22;49652;-73
2023/04/23 16:04:18;;;;;;;;;0.00;0.00;;;;;;;;6202178;22;49952;-72
2023/04/23 16:06:43;;;;;;;;;0.00;0.00;;;;;;;;6202186;22;49949;-75
2023/04/23 16:11:57;;;;;;;;;0.00;0.00;;;;;;;;6185185;22;49779;-74
2023/04/23 16:14:22;;;;;;;;;0.00;0.00;;;;;;;;6223381;22;30967;-73
2023/04/23 16:16:47;;;;;;;;;0.00;0.00;;;;;;;;6208400;22;49203;-75
2023/04/23 16:19:13;;;;;;;;;0.00;0.00;;;;;;;;6167400;22;48339;-73
2023/04/23 16:21:38;;;;;;;;;0.00;0.00;;;;;;;;6224520;22;30965;-72
2023/04/23 16:26:38;;;;;;;;;0.00;0.00;;;;;;;;6091668;22;32995;-76
2023/04/23 16:29:05;;;;;;;;;0.00;0.00;;;;;;;;6252006;22;31139;-78
2023/04/23 16:31:30;;;;;;;;;0.00;0.00;;;;;;;;6253718;22;31382;-79
2023/04/23 16:33:56;;;;;;;;;0.00;0.00;;;;;;;;6227477;22;32191;-79
2023/04/23 16:36:21;;;;;;;;;0.00;0.00;;;;;;;;6255057;22;31477;-77
2023/04/23 16:38:47;;;;;;;;;0.00;0.00;;;;;;;;6252603;22;30978;-78
2023/04/23 16:41:15;;;;;;;;;0.00;0.00;;;;;;;;6252208;22;31318;-81
2023/04/23 16:46:43;;;;;;;;;0.00;0.00;;;;;;;;6078443;22;31441;-78
2023/04/23 16:49:08;;;;;;;;;0.00;0.00;;;;;;;;6283218;22;31135;-77
2023/04/23 16:51:33;;;;;;;;;0.00;0.00;;;;;;;;6285787;22;31376;-75
2023/04/23 16:53:58;;;;;;;;;0.00;0.00;;;;;;;;6285493;22;31505;-75
2023/04/23 16:56:24;;;;;;;;;0.00;0.00;;;;;;;;6281519;22;31129;-74
2023/04/23 16:58:49;;;;;;;;;0.00;0.00;;;;;;;;6282927;22;31285;-75
2023/04/23 17:01:16;;;;;;;;;0.00;0.00;;;;;;;;6286079;22;31112;-76
2023/04/23 17:03:41;;;;;;;;;0.00;0.00;;;;;;;;6285798;22;31351;-76
2023/04/23 17:06:08;;;;;;;;;0.00;0.00;;;;;;;;6286219;22;30993;-74
2023/04/23 17:08:35;;;;;;;;;0.00;0.00;;;;;;;;6285731;22;30469;-76
2023/04/23 17:11:01;;;;;;;;;0.00;0.00;;;;;;;;6286053;22;30938;-76
2023/04/23 17:13:26;;;;;;;;;0.00;0.00;;;;;;;;6285621;22;31976;-74
2023/04/23 17:15:51;;;;;;;;;0.00;0.00;;;;;;;;6286186;22;31120;-74
2023/04/23 17:18:16;;;;;;;;;0.00;0.00;;;;;;;;6286042;22;31305;-73
2023/04/23 17:20:42;;;;;;;;;0.00;0.00;;;;;;;;6285889;22;30988;-70
2023/04/23 17:23:07;;;;;;;;;0.00;0.00;;;;;;;;6286074;22;31723;-75
2023/04/23 17:25:32;;;;;;;;;0.00;0.00;;;;;;;;6285751;22;31250;-74
2023/04/23 17:27:57;;;;;;;;;0.00;0.00;;;;;;;;6285336;22;31506;-72
2023/04/23 17:30:23;;;;;;;;;0.00;0.00;;;;;;;;6257852;22;31419;-76
2023/04/23 17:32:48;;;;;;;;;0.00;0.00;;;;;;;;6285792;22;31563;-77
2023/04/23 17:35:14;;;;;;;;;0.00;0.00;;;;;;;;6286392;22;31075;-77
2023/04/23 17:37:39;;;;;;;;;0.00;0.00;;;;;;;;6285724;22;31268;-76
2023/04/23 17:40:05;;;;;;;;;0.00;0.00;;;;;;;;6257188;22;31089;-76
2023/04/23 17:42:30;;;;;;;;;0.00;0.00;;;;;;;;6286138;22;31112;-70
2023/04/23 17:44:55;;;;;;;;;0.00;0.00;;;;;;;;6285683;22;31065;-70
2023/04/23 17:47:21;;;;;;;;;0.00;0.00;;;;;;;;6284891;22;31221;-72
2023/04/23 17:49:46;;;;;;;;;0.00;0.00;;;;;;;;6286247;22;31036;-71
2023/04/23 17:52:11;;;;;;;;;0.00;0.00;;;;;;;;6286291;22;31096;-73
2023/04/23 17:54:36;;;;;;;;;0.00;0.00;;;;;;;;6285728;22;31388;-72
2023/04/23 17:57:02;;;;;;;;;0.00;0.00;;;;;;;;6285666;22;31383;-72
2023/04/23 17:59:28;;;;;;;;;0.00;0.00;;;;;;;;6285611;22;30958;-71
2023/04/23 18:01:53;;;;;;;;;0.00;0.00;;;;;;;;6285902;22;31053;-75
2023/04/23 18:04:18;;;;;;;;;0.00;0.00;;;;;;;;6286268;22;31010;-73
2023/04/23 18:06:43;;;;;;;;;0.00;0.00;;;;;;;;6286262;22;31256;-73
2023/04/23 18:09:08;;;;;;;;;0.00;0.00;;;;;;;;6286028;22;30973;-77
2023/04/23 18:11:34;;;;;;;;;0.00;0.00;;;;;;;;6286112;22;31825;-76
2023/04/23 18:13:59;;;;;;;;;0.00;0.00;;;;;;;;6285618;22;31015;-71
2023/04/23 18:16:24;;;;;;;;;0.00;0.00;;;;;;;;6285975;22;31049;-70
2023/04/23 18:18:50;;;;;;;;;0.00;0.00;;;;;;;;6286152;22;30963;-70
2023/04/23 18:21:17;;;;;;;;;0.00;0.00;;;;;;;;6285645;22;32750;-71
2023/04/23 18:23:42;;;;;;;;;0.00;0.00;;;;;;;;6285857;22;30982;-71
2023/04/23 18:26:07;;;;;;;;;0.00;0.00;;;;;;;;6285661;22;30923;-69
2023/04/23 18:28:33;;;;;;;;;0.00;0.00;;;;;;;;6285785;22;31300;-74
2023/04/23 18:31:01;;;;;;;;;0.00;0.00;;;;;;;;6285097;22;32048;-73
2023/04/23 18:33:26;;;;;;;;;0.00;0.00;;;;;;;;6285504;22;31417;-73
2023/04/23 18:35:54;;;;;;;;;0.00;0.00;;;;;;;;6285882;22;31189;-69
2023/04/23 18:38:24;;;;;;;;;0.00;0.00;;;;;;;;6257820;22;31183;-70
2023/04/23 18:40:49;;;;;;;;;0.00;0.00;;;;;;;;6285408;22;31108;-71
2023/04/23 18:43:14;;;;;;;;;0.00;0.00;;;;;;;;6285247;22;31097;-70
2023/04/23 18:45:39;;;;;;;;;0.00;0.00;;;;;;;;6283174;22;31353;-71
2023/04/23 18:48:27;;;;;;;;;0.00;0.00;;;;;;;;6284078;22;31387;-72
2023/04/23 18:50:56;;;;;;;;;0.50;0.00;;;;;;;;6282010;22;31855;-72
2023/04/23 18:53:21;;;;;;;;;0.00;0.00;;;;;;;;6285107;22;31041;-72
2023/04/23 18:55:46;;;;;;;;;0.00;0.00;;;;;;;;6285609;22;31200;-71
2023/04/23 18:58:11;;;;;;;;;0.00;0.00;;;;;;;;6285398;22;31321;-70
2023/04/23 19:00:36;;;;;;;;;0.00;0.00;;;;;;;;6285362;22;31034;-71
2023/04/23 19:03:02;;;;;;;;;0.00;0.00;;;;;;;;6285045;22;31344;-71
2023/04/23 19:05:27;;;;;;;;;0.00;0.00;;;;;;;;6284549;22;31060;-70
2023/04/23 19:07:53;;;;;;;;;0.00;0.00;;;;;;;;6286578;22;30986;-72
2023/04/23 19:10:18;;;;;;;;;0.00;0.00;;;;;;;;6285835;22;31922;-72
2023/04/23 19:12:43;;;;;;;;;0.00;0.00;;;;;;;;6285769;22;31085;-72
2023/04/23 19:15:09;;;;;;;;;0.00;0.00;;;;;;;;6286514;22;31105;-71
2023/04/23 19:17:35;;;;;;;;;0.00;0.00;;;;;;;;6286189;22;31445;-74
2023/04/23 19:20:00;;;;;;;;;0.00;0.00;;;;;;;;6286219;22;31535;-72
2023/04/23 19:22:26;;;;;;;;;0.00;0.00;;;;;;;;6286384;22;31053;-70
2023/04/23 19:24:51;;;;;;;;;0.00;0.00;;;;;;;;6285937;22;31040;-70
2023/04/23 19:27:16;;;;;;;;;0.00;0.00;;;;;;;;6286099;22;31061;-70
2023/04/23 19:29:41;;;;;;;;;0.00;0.00;;;;;;;;6258087;22;32712;-70
2023/04/23 19:32:06;;;;;;;;;0.00;0.00;;;;;;;;6286543;22;31128;-69
2023/04/23 19:34:31;;;;;;;;;0.00;0.00;;;;;;;;6285702;22;32993;-69
2023/04/23 19:36:57;;;;;;;;;0.00;0.00;;;;;;;;6286556;22;31117;-69
2023/04/23 19:39:22;;;;;;;;;0.00;0.00;;;;;;;;6285384;22;40437;-69
2023/04/23 19:41:47;;;;;;;;;0.00;0.00;;;;;;;;6286282;22;31089;-69
2023/04/23 19:44:12;;;;;;;;;0.00;0.00;;;;;;;;6285747;22;35753;-69
2023/04/23 19:46:38;;;;;;;;;0.00;0.00;;;;;;;;6283761;22;41764;-69
2023/04/23 19:49:03;;;;;;;;;0.00;0.00;;;;;;;;6282246;22;44609;-69
2023/04/23 19:51:31;;;;;;;;;0.00;0.00;;;;;;;;6273415;22;47326;-70
2023/04/23 19:53:57;;;;;;;;;0.00;0.00;;;;;;;;6266361;22;48817;-70
2023/04/23 19:56:22;;;;;;;;;0.00;0.00;;;;;;;;6264654;22;48989;-71
2023/04/23 19:58:49;;;;;;;;;0.00;0.00;;;;;;;;6265081;22;50088;-71
2023/04/23 20:01:14;;;;;;;;;0.00;0.00;;;;;;;;6264847;22;49855;-71
2023/04/23 20:03:40;;;;;;;;;0.00;0.00;;;;;;;;6264183;22;49144;-72
2023/04/23 20:06:05;;;;;;;;;0.00;0.00;;;;;;;;6265343;22;48615;-72
2023/04/23 20:08:40;;;;;;;;;0.00;0.00;;;;;;;;6267051;22;49177;-73
2023/04/23 20:11:06;;;;;;;;;0.00;0.00;;;;;;;;6265700;22;49012;-71
2023/04/23 20:13:31;;;;;;;;;0.00;0.00;;;;;;;;6270290;22;47948;-71
2023/04/23 20:15:57;;;;;;;;;0.00;0.00;;;;;;;;6268818;22;48437;-73
2023/04/23 20:18:24;;;;;;;;;0.00;0.00;;;;;;;;6279087;22;40837;-73
2023/04/23 20:20:49;;;;;;;;;0.00;0.00;;;;;;;;6281917;22;42646;-72
2023/04/23 20:23:14;;;;;;;;;0.00;0.00;;;;;;;;6280311;22;47920;-71
2023/04/23 20:25:39;;;;;;;;;0.00;0.00;;;;;;;;6267901;22;48915;-71
2023/04/23 20:28:05;;;;;;;;;0.00;0.00;;;;;;;;6265212;22;48914;-71
2023/04/23 20:30:30;;;;;;;;;0.00;0.00;;;;;;;;6264590;22;49386;-70
2023/04/23 20:32:56;;;;;;;;;0.00;0.00;;;;;;;;6265178;22;49444;-70
2023/04/23 20:35:21;;;;;;;;;0.00;0.00;;;;;;;;6264206;22;49727;-71
2023/04/23 20:37:46;;;;;;;;;0.00;0.00;;;;;;;;6263123;22;50081;-71
2023/04/23 20:40:13;;;;;;;;;0.00;0.00;;;;;;;;6264558;22;49467;-72
2023/04/23 20:42:38;;;;;;;;;0.00;0.00;;;;;;;;6264452;22;50111;-72
2023/04/23 20:45:05;;;;;;;;;0.00;0.00;;;;;;;;6264831;22;49452;-71
2023/04/23 20:47:31;;;;;;;;;0.00;0.00;;;;;;;;6263165;22;51000;-71
2023/04/23 20:49:56;;;;;;;;;0.00;0.00;;;;;;;;6258598;22;49562;-71
2023/04/23 20:52:21;;;;;;;;;0.00;0.00;;;;;;;;6264381;22;50001;-72
2023/04/23 20:54:46;;;;;;;;;0.00;0.00;;;;;;;;6263894;22;49867;-71
2023/04/23 20:57:11;;;;;;;;;0.00;0.00;;;;;;;;6262891;22;49792;-71
2023/04/23 20:59:37;;;;;;;;;0.00;0.00;;;;;;;;6263977;22;49821;-72
2023/04/23 21:02:02;;;;;;;;;0.00;0.00;;;;;;;;6264194;22;49741;-71
2023/04/23 21:04:27;;;;;;;;;0.00;0.00;;;;;;;;6264350;22;49832;-71
2023/04/23 21:06:52;;;;;;;;;0.00;0.00;;;;;;;;6263833;22;50845;-71
2023/04/23 21:09:18;;;;;;;;;0.00;0.00;;;;;;;;6263307;22;49841;-70
2023/04/23 21:11:43;;;;;;;;;0.00;0.00;;;;;;;;6263231;22;49614;-70
2023/04/23 21:14:08;;;;;;;;;0.00;0.00;;;;;;;;6263236;22;49614;-70
2023/04/23 21:16:37;;;;;;;;;0.00;0.00;;;;;;;;6263649;22;49899;-71
2023/04/23 21:19:02;;;;;;;;;0.00;0.00;;;;;;;;6260494;22;49769;-71
2023/04/23 21:21:29;;;;;;;;;0.00;0.00;;;;;;;;6261084;22;49750;-71
2023/04/23 21:23:55;;;;;;;;;0.00;0.00;;;;;;;;6264071;22;50054;-71
2023/04/23 21:26:21;;;;;;;;;0.00;0.00;;;;;;;;6263286;22;51263;-70
2023/04/23 21:28:46;;;;;;;;;0.00;0.00;;;;;;;;6261225;22;49804;-71
2023/04/23 21:31:13;;;;;;;;;0.75;0.75;;;;;;;;6263688;22;49988;-70
2023/04/23 21:33:38;;;;;;;;;0.00;0.00;;;;;;;;6263664;22;49815;-70
2023/04/23 21:36:04;;;;;;;;;0.00;0.00;;;;;;;;6263124;22;51861;-71
2023/04/23 21:38:29;;;;;;;;;0.00;0.00;;;;;;;;6263347;22;49731;-72
